Time;durP1;ratioP1;P1;durP2;ratioP2;P2;SDS_P1;SDS_P2;PMS_P1;PMS_P2;Temp;Humidity;BMP_temperature;BMP_pressure;BME280_temperature;BME280_humidity;BME280_pressure;Samples;Min_cycle;Max_cycle;Signal;HPM_P1;HPM_P2
2021/07/11 00:01:52;;;;;;;37.03;23.50;;;19.10;85.60;;;;;;5092484;28;20196;-85
2021/07/11 00:04:18;;;;;;;32.90;22.77;;;19.10;85.80;;;;;;5095654;28;20176;-85
2021/07/11 00:06:43;;;;;;;34.10;22.37;;;19.00;85.80;;;;;;5105467;28;20187;-85
2021/07/11 00:09:12;;;;;;;30.60;21.27;;;18.90;85.80;;;;;;5093476;28;20654;-85
2021/07/11 00:11:37;;;;;;;27.05;18.77;;;18.90;85.90;;;;;;5093152;28;20625;-85
2021/07/11 00:14:04;;;;;;;31.50;20.63;;;18.80;85.80;;;;;;5092538;28;20222;-85
2021/07/11 00:16:31;;;;;;;29.20;20.25;;;18.80;85.90;;;;;;5096322;28;20196;-85
2021/07/11 00:18:57;;;;;;;22.58;16.45;;;18.80;85.90;;;;;;5096404;28;20255;-86
2021/07/11 00:21:23;;;;;;;25.00;17.67;;;18.80;85.80;;;;;;5095724;28;20279;-86
2021/07/11 00:23:49;;;;;;;24.47;17.20;;;18.80;85.70;;;;;;5097466;28;20535;-85
2021/07/11 00:26:15;;;;;;;29.40;17.37;;;18.80;85.80;;;;;;5095939;28;20414;-85
2021/07/11 00:28:40;;;;;;;25.13;17.43;;;18.70;85.90;;;;;;5096151;28;20262;-86
2021/07/11 00:31:06;;;;;;;29.60;18.27;;;18.70;86.00;;;;;;5095870;28;20810;-85
2021/07/11 00:33:32;;;;;;;34.90;22.00;;;18.70;86.10;;;;;;5112902;28;20180;-85
2021/07/11 00:35:58;;;;;;;24.83;16.90;;;18.70;86.10;;;;;;5097250;28;20290;-86
2021/07/11 00:38:24;;;;;;;24.23;16.57;;;18.80;86.00;;;;;;5096476;28;20180;-86
2021/07/11 00:40:49;;;;;;;25.20;16.23;;;18.70;86.00;;;;;;5095702;28;20418;-86
2021/07/11 00:43:16;;;;;;;26.10;17.30;;;18.60;86.00;;;;;;5095844;28;20483;-86
2021/07/11 00:45:42;;;;;;;27.10;16.00;;;18.60;86.10;;;;;;5095618;28;20172;-86
2021/07/11 00:48:08;;;;;;;22.95;17.40;;;18.60;86.20;;;;;;5097377;28;20221;-86
2021/07/11 00:50:35;;;;;;;23.70;15.10;;;18.50;86.30;;;;;;5095293;28;20690;-86
2021/07/11 00:53:01;;;;;;;19.58;15.02;;;18.60;86.40;;;;;;5096433;28;20192;-86
2021/07/11 00:55:27;;;;;;;26.03;14.80;;;18.60;86.40;;;;;;5097129;28;20221;-86
2021/07/11 00:57:53;;;;;;;21.77;15.70;;;18.50;86.40;;;;;;5096369;28;20441;-86
2021/07/11 01:00:21;;;;;;;23.67;16.08;;;18.50;86.40;;;;;;5096137;28;20593;-86
2021/07/11 01:03:00;;;;;;;20.35;15.52;;;18.50;86.50;;;;;;5097698;28;20634;-86
2021/07/11 01:05:26;;;;;;;23.67;18.30;;;18.50;86.40;;;;;;5098568;28;20174;-86
2021/07/11 01:08:34;;;;;;;26.60;17.38;;;18.40;86.30;;;;;;5097147;28;20179;-86
2021/07/11 01:11:07;;;;;;;30.08;18.92;;;18.50;85.90;;;;;;5068081;28;20215;-87
2021/07/11 01:13:35;;;;;;;27.17;18.73;;;18.40;85.70;;;;;;5075905;28;20206;-86
2021/07/11 01:16:06;;;;;;;27.98;19.92;;;18.40;85.80;;;;;;5076587;28;20533;-86
2021/07/11 01:18:32;;;;;;;29.50;20.23;;;18.40;85.90;;;;;;5074470;28;20177;-87
2021/07/11 01:21:02;;;;;;;27.52;18.00;;;18.30;85.90;;;;;;5076238;28;20522;-85
2021/07/11 01:23:58;;;;;;;25.48;19.05;;;18.30;85.70;;;;;;5075285;28;20636;-86
2021/07/11 01:26:27;;;;;;;37.17;20.23;;;18.20;85.50;;;;;;5078865;28;20185;-85
2021/07/11 01:28:55;;;;;;;26.02;19.13;;;18.20;85.30;;;;;;5106490;28;20229;-86
2021/07/11 01:31:22;;;;;;;27.67;19.40;;;18.20;85.30;;;;;;5095046;28;20196;-86
2021/07/11 01:33:49;;;;;;;25.40;17.27;;;18.20;85.20;;;;;;5096283;28;20168;-86
2021/07/11 01:36:16;;;;;;;29.48;19.48;;;18.20;85.20;;;;;;5095088;28;20238;-86
2021/07/11 01:38:43;;;;;;;26.00;16.92;;;18.10;85.10;;;;;;5094776;28;20172;-86
2021/07/11 01:41:12;;;;;;;24.45;17.33;;;18.10;85.20;;;;;;5094286;28;20192;-86
2021/07/11 01:43:39;;;;;;;22.65;16.38;;;18.10;85.20;;;;;;5094430;28;20176;-86
2021/07/11 01:46:07;;;;;;;22.45;15.55;;;18.10;85.10;;;;;;5094756;28;20515;-86
2021/07/11 01:48:34;;;;;;;19.40;15.15;;;18.00;84.90;;;;;;5094722;28;20591;-85
2021/07/11 01:51:01;;;;;;;29.10;16.92;;;18.10;84.80;;;;;;5094071;28;20665;-87
2021/07/11 01:53:30;;;;;;;21.77;16.40;;;18.10;84.30;;;;;;5094548;28;20194;-86
2021/07/11 01:55:57;;;;;;;18.92;16.33;;;18.00;84.40;;;;;;5094198;28;20195;-87
2021/07/11 01:58:24;;;;;;;25.88;17.63;;;18.00;84.50;;;;;;5094319;28;20184;-86
2021/07/11 02:00:52;;;;;;;23.30;17.48;;;18.00;84.50;;;;;;5093777;28;20176;-86
2021/07/11 02:03:20;;;;;;;22.23;16.67;;;17.90;84.70;;;;;;5094438;28;20188;-86
2021/07/11 02:05:49;;;;;;;23.10;15.50;;;17.90;84.70;;;;;;5094096;28;20183;-86
2021/07/11 02:08:16;;;;;;;30.83;17.48;;;17.90;84.70;;;;;;5094100;28;20180;-85
2021/07/11 02:10:45;;;;;;;23.38;16.10;;;17.80;84.60;;;;;;5093715;28;20647;-86
2021/07/11 02:13:16;;;;;;;24.38;16.42;;;17.80;84.70;;;;;;5099520;28;20214;-86
2021/07/11 02:15:45;;;;;;;23.48;15.68;;;17.80;84.70;;;;;;5098514;28;20282;-86
2021/07/11 02:18:15;;;;;;;33.13;19.52;;;17.80;84.50;;;;;;5094100;28;20176;-86
2021/07/11 02:20:42;;;;;;;36.15;18.70;;;17.80;84.60;;;;;;5093572;28;20590;-86
2021/07/11 02:23:09;;;;;;;32.13;19.95;;;17.80;84.40;;;;;;5108309;28;20188;-86
2021/07/11 02:25:35;;;;;;;36.15;22.98;;;17.80;84.30;;;;;;5094591;28;20275;-85
2021/07/11 02:28:03;;;;;;;37.10;24.35;;;17.80;84.20;;;;;;5094123;28;20187;-86
2021/07/11 02:30:40;;;;;;;35.45;22.55;;;17.80;84.20;;;;;;5093399;28;20212;-86
2021/07/11 02:33:12;;;;;;;38.78;24.90;;;17.70;84.10;;;;;;5094053;28;20188;-86
2021/07/11 02:35:41;;;;;;;46.78;22.85;;;17.70;84.00;;;;;;5094823;28;20167;-86
2021/07/11 02:38:08;;;;;;;28.42;21.35;;;17.70;83.70;;;;;;5092904;28;20199;-85
2021/07/11 02:40:35;;;;;;;30.13;21.60;;;17.60;83.70;;;;;;5093080;28;20563;-86
2021/07/11 02:43:08;;;;;;;26.92;18.13;;;17.60;83.60;;;;;;5093628;28;20750;-86
2021/07/11 02:45:35;;;;;;;24.60;17.85;;;17.70;83.60;;;;;;5093548;28;20171;-85
2021/07/11 02:48:03;;;;;;;28.52;18.10;;;17.80;82.90;;;;;;5093441;28;20639;-86
2021/07/11 02:50:30;;;;;;;24.95;16.45;;;17.80;83.00;;;;;;5093082;28;20171;-86
2021/07/11 02:52:57;;;;;;;22.27;14.95;;;17.60;82.80;;;;;;5093557;28;20203;-86
2021/07/11 02:55:31;;;;;;;19.40;14.98;;;17.40;83.00;;;;;;5093398;28;20168;-86
2021/07/11 02:58:04;;;;;;;21.52;14.70;;;17.40;83.30;;;;;;5093583;28;20225;-85
2021/07/11 03:00:32;;;;;;;24.52;16.20;;;17.40;83.50;;;;;;5092803;28;20157;-85
2021/07/11 03:02:58;;;;;;;21.13;15.38;;;17.40;83.50;;;;;;5093336;28;20204;-85
2021/07/11 03:05:25;;;;;;;28.02;15.70;;;17.40;83.80;;;;;;5093261;28;20542;-86
2021/07/11 03:07:51;;;;;;;23.38;16.15;;;17.40;84.10;;;;;;5093205;28;20258;-86
2021/07/11 03:10:18;;;;;;;22.45;15.48;;;17.30;84.20;;;;;;5094620;28;20201;-86
2021/07/11 03:12:48;;;;;;;24.75;16.95;;;17.40;84.10;;;;;;5093417;28;20270;-85
2021/07/11 03:15:14;;;;;;;25.75;16.15;;;17.40;83.80;;;;;;5093428;28;20272;-85
2021/07/11 03:17:41;;;;;;;27.92;18.27;;;17.40;83.40;;;;;;5106474;28;20228;-86
2021/07/11 03:20:08;;;;;;;24.17;17.63;;;17.30;83.80;;;;;;5104899;28;20179;-86
2021/07/11 03:22:37;;;;;;;29.48;18.25;;;17.30;83.90;;;;;;5093979;28;20305;-86
2021/07/11 03:25:10;;;;;;;33.15;20.35;;;17.30;84.10;;;;;;5094133;28;20267;-85
2021/07/11 03:27:37;;;;;;;27.65;18.55;;;17.20;84.20;;;;;;5093598;28;20180;-86
2021/07/11 03:30:07;;;;;;;28.00;19.00;;;17.20;84.20;;;;;;5093301;28;20172;-85
2021/07/11 03:32:59;;;;;;;29.13;19.80;;;17.10;84.20;;;;;;5093697;28;20218;-86
2021/07/11 03:35:35;;;;;;;28.80;18.38;;;17.10;84.40;;;;;;5096048;28;20172;-86
2021/07/11 03:38:03;;;;;;;35.05;20.42;;;17.20;85.40;;;;;;5094261;28;20209;-86
2021/07/11 03:40:36;;;;;;;34.53;23.30;;;17.20;84.70;;;;;;5094931;28;20355;-86
2021/07/11 03:43:07;;;;;;;34.10;24.75;;;17.10;84.90;;;;;;5094965;28;20176;-86
2021/07/11 03:45:34;;;;;;;33.17;22.52;;;17.10;85.00;;;;;;5094236;28;20198;-86
2021/07/11 03:48:13;;;;;;;37.00;23.17;;;17.10;84.90;;;;;;5096142;28;20178;-86
2021/07/11 03:50:45;;;;;;;31.13;20.65;;;17.20;84.80;;;;;;5100120;28;20258;-85
2021/07/11 03:53:12;;;;;;;35.90;22.65;;;17.20;84.60;;;;;;5098307;28;20184;-85
2021/07/11 03:55:39;;;;;;;30.02;20.80;;;17.10;84.60;;;;;;5102278;28;20172;-85
2021/07/11 03:58:07;;;;;;;37.22;22.80;;;17.10;84.60;;;;;;5096802;28;20176;-86
2021/07/11 04:00:33;;;;;;;40.78;24.08;;;17.10;84.50;;;;;;5097443;28;20168;-85
2021/07/11 04:03:03;;;;;;;32.20;20.15;;;17.20;84.50;;;;;;5096932;28;20253;-85
2021/07/11 04:05:34;;;;;;;31.02;20.65;;;17.30;84.40;;;;;;5096625;28;20199;-84
2021/07/11 04:08:02;;;;;;;34.42;22.27;;;17.40;84.00;;;;;;5096909;28;20204;-85
2021/07/11 04:10:29;;;;;;;34.72;20.73;;;17.30;83.90;;;;;;5079453;28;20183;-85
2021/07/11 04:12:57;;;;;;;31.73;21.15;;;17.20;83.90;;;;;;5092413;28;20291;-84
2021/07/11 04:15:24;;;;;;;33.25;22.63;;;17.20;83.90;;;;;;5076834;28;20675;-85
2021/07/11 04:17:51;;;;;;;40.38;21.02;;;17.20;84.20;;;;;;5075986;28;20215;-86
2021/07/11 04:20:19;;;;;;;32.38;21.10;;;17.20;84.30;;;;;;5078413;28;20183;-86
2021/07/11 04:22:48;;;;;;;29.50;20.00;;;17.20;84.50;;;;;;5086981;28;20196;-86
2021/07/11 04:25:15;;;;;;;36.00;24.02;;;17.20;84.50;;;;;;5076051;28;20176;-86
2021/07/11 04:27:42;;;;;;;34.92;22.05;;;17.20;84.50;;;;;;5076002;28;20181;-86
2021/07/11 04:30:09;;;;;;;33.00;19.40;;;17.20;84.50;;;;;;5075884;28;20668;-86
2021/07/11 04:32:36;;;;;;;32.10;20.33;;;17.20;84.40;;;;;;5075004;28;20204;-86
2021/07/11 04:35:04;;;;;;;29.33;18.40;;;17.30;84.50;;;;;;5075704;28;20188;-86
2021/07/11 04:37:29;;;;;;;27.77;18.35;;;17.20;84.10;;;;;;5075498;28;20215;-86
2021/07/11 04:39:55;;;;;;;29.83;17.10;;;17.20;83.90;;;;;;5075665;28;20169;-86
2021/07/11 04:42:21;;;;;;;27.33;18.07;;;17.20;83.90;;;;;;5090281;28;20207;-86
2021/07/11 04:44:47;;;;;;;28.87;18.23;;;17.30;84.00;;;;;;5096005;28;20203;-86
2021/07/11 04:47:13;;;;;;;26.83;19.52;;;17.30;84.00;;;;;;5095549;28;20202;-85
2021/07/11 04:49:39;;;;;;;28.95;17.35;;;17.30;84.00;;;;;;5096011;28;20183;-85
2021/07/11 04:52:06;;;;;;;33.45;18.98;;;17.30;83.90;;;;;;5096939;28;20187;-85
2021/07/11 04:54:33;;;;;;;32.30;17.75;;;17.30;83.90;;;;;;5095675;28;20188;-86
2021/07/11 04:56:59;;;;;;;31.38;20.55;;;17.40;83.90;;;;;;5096799;28;20626;-86
2021/07/11 04:59:25;;;;;;;34.70;17.27;;;17.50;83.90;;;;;;5095832;28;20179;-86
2021/07/11 05:02:10;;;;;;;27.30;16.40;;;17.60;83.40;;;;;;5097662;28;20196;-85
2021/07/11 05:04:35;;;;;;;21.75;16.00;;;17.60;82.90;;;;;;5096228;28;20783;-85
2021/07/11 05:07:01;;;;;;;23.13;17.70;;;17.70;82.80;;;;;;5107239;28;20183;-83
2021/07/11 05:09:26;;;;;;;24.87;16.47;;;17.90;82.70;;;;;;5098320;28;20586;-84
2021/07/11 05:11:52;;;;;;;27.03;18.50;;;17.90;82.20;;;;;;5096179;28;20682;-84
2021/07/11 05:14:18;;;;;;;26.80;17.70;;;18.00;82.10;;;;;;5096122;28;20579;-85
2021/07/11 05:16:44;;;;;;;26.80;16.13;;;18.10;82.00;;;;;;5096546;28;20434;-85
2021/07/11 05:19:10;;;;;;;22.53;16.70;;;18.40;81.80;;;;;;5097087;28;20172;-85
2021/07/11 05:21:36;;;;;;;22.88;15.73;;;18.30;81.30;;;;;;5096570;28;20621;-85
2021/07/11 05:24:02;;;;;;;20.63;13.88;;;18.70;81.30;;;;;;5096787;28;20183;-85
2021/07/11 05:26:28;;;;;;;16.42;12.82;;;19.20;80.40;;;;;;5098651;28;20614;-85
2021/07/11 05:28:54;;;;;;;18.10;12.80;;;19.90;78.20;;;;;;5094925;28;20179;-85
2021/07/11 05:31:19;;;;;;;15.57;12.00;;;21.10;75.20;;;;;;5097475;28;20541;-85
2021/07/11 05:33:45;;;;;;;21.83;11.27;;;21.80;70.30;;;;;;5095032;28;20661;-86
2021/07/11 05:36:12;;;;;;;19.47;11.73;;;22.80;66.70;;;;;;5095097;28;20196;-86
2021/07/11 05:38:39;;;;;;;15.53;11.00;;;23.80;62.30;;;;;;5095146;28;20699;-86
2021/07/11 05:41:06;;;;;;;14.20;11.80;;;24.60;59.10;;;;;;5094773;28;20430;-86
2021/07/11 05:43:32;;;;;;;16.37;11.13;;;25.80;56.40;;;;;;5094706;28;20418;-86
2021/07/11 05:45:58;;;;;;;16.77;11.73;;;26.80;52.00;;;;;;5094667;28;20414;-86
2021/07/11 05:48:25;;;;;;;11.73;9.73;;;27.10;50.00;;;;;;5095776;28;20464;-86
2021/07/11 05:50:50;;;;;;;13.37;11.60;;;27.30;49.20;;;;;;5093998;28;20409;-86
2021/07/11 05:53:16;;;;;;;16.10;11.00;;;28.00;47.80;;;;;;5097209;28;20908;-86
2021/07/11 05:55:42;;;;;;;16.47;11.37;;;28.10;46.40;;;;;;5094968;28;20642;-87
2021/07/11 05:58:08;;;;;;;17.67;11.90;;;28.20;45.70;;;;;;5095410;28;20172;-87
2021/07/11 06:00:35;;;;;;;12.07;10.77;;;29.30;44.60;;;;;;5096673;28;20421;-87
2021/07/11 06:03:01;;;;;;;22.27;11.87;;;29.60;43.40;;;;;;5108191;28;20433;-86
2021/07/11 06:05:27;;;;;;;18.00;12.83;;;30.00;42.30;;;;;;5104010;28;20384;-87
2021/07/11 06:07:52;;;;;;;11.50;10.30;;;29.80;41.20;;;;;;5098502;28;20418;-87
2021/07/11 06:10:18;;;;;;;15.97;10.87;;;30.20;41.30;;;;;;5097372;28;20465;-87
2021/07/11 06:12:44;;;;;;;12.80;11.47;;;30.50;40.90;;;;;;5098344;28;20298;-87
2021/07/11 06:15:11;;;;;;;14.50;12.53;;;31.00;39.70;;;;;;5099745;28;20200;-87
2021/07/11 06:17:37;;;;;;;21.07;15.80;;;30.90;38.40;;;;;;5097511;28;20306;-86
2021/07/11 06:20:07;;;;;;;22.93;15.90;;;30.10;39.20;;;;;;5098417;28;20425;-86
2021/07/11 06:22:33;;;;;;;19.43;15.67;;;30.20;39.20;;;;;;5099182;28;20460;-87
2021/07/11 06:25:06;;;;;;;24.03;17.00;;;30.50;38.90;;;;;;5100572;28;20881;-86
2021/07/11 06:27:39;;;;;;;21.50;16.30;;;30.80;38.70;;;;;;5096494;28;20446;-87
2021/07/11 06:30:09;;;;;;;16.40;14.63;;;31.20;37.50;;;;;;5097549;28;20479;-86
2021/07/11 06:32:35;;;;;;;17.43;13.23;;;31.30;37.60;;;;;;5100638;28;20452;-86
2021/07/11 06:35:00;;;;;;;16.70;14.33;;;32.00;37.20;;;;;;5101762;28;20413;-87
2021/07/11 06:37:26;;;;;;;18.23;14.50;;;32.20;35.90;;;;;;5102814;28;20862;-87
2021/07/11 06:39:52;;;;;;;21.50;15.57;;;32.10;36.40;;;;;;5102492;28;20179;-87
2021/07/11 06:42:18;;;;;;;15.13;13.60;;;32.50;35.90;;;;;;5099875;28;20200;-87
2021/07/11 06:44:43;;;;;;;19.70;13.00;;;32.50;35.30;;;;;;5103755;28;20179;-87
2021/07/11 06:47:09;;;;;;;13.40;12.00;;;32.50;35.40;;;;;;5101292;28;20237;-87
2021/07/11 06:49:35;;;;;;;15.37;10.73;;;32.10;36.50;;;;;;5108938;28;20534;-87
2021/07/11 06:52:02;;;;;;;13.33;11.10;;;31.20;37.00;;;;;;5105836;28;20267;-87
2021/07/11 06:54:28;;;;;;;14.37;12.20;;;30.60;38.10;;;;;;5106679;28;20180;-87
2021/07/11 06:56:53;;;;;;;13.37;12.07;;;30.20;39.00;;;;;;5106114;28;20465;-87
2021/07/11 06:59:19;;;;;;;12.90;11.50;;;29.70;39.70;;;;;;5101401;28;20180;-87
2021/07/11 07:01:45;;;;;;;15.10;13.60;;;29.30;41.90;;;;;;5100091;28;20620;-86
2021/07/11 07:04:10;;;;;;;18.03;14.17;;;29.20;42.30;;;;;;5098207;28;20184;-87
2021/07/11 07:06:36;;;;;;;17.20;15.30;;;29.20;42.60;;;;;;5094633;28;20260;-87
2021/07/11 07:09:02;;;;;;;17.73;15.13;;;28.80;42.70;;;;;;5093781;28;20191;-87
2021/07/11 07:11:28;;;;;;;19.00;13.60;;;28.30;44.00;;;;;;5093498;28;20191;-87
2021/07/11 07:13:54;;;;;;;14.03;12.63;;;27.70;45.00;;;;;;5093930;28;20422;-86
2021/07/11 07:16:20;;;;;;;17.90;13.40;;;27.10;46.70;;;;;;5093490;28;20216;-86
2021/07/11 07:18:45;;;;;;;16.73;12.93;;;26.50;47.90;;;;;;5093967;28;20275;-86
2021/07/11 07:21:11;;;;;;;14.73;11.87;;;26.60;48.00;;;;;;5093178;28;20195;-87
2021/07/11 07:23:37;;;;;;;22.13;11.97;;;26.10;49.10;;;;;;5093463;28;20592;-86
2021/07/11 07:26:03;;;;;;;14.37;12.97;;;25.80;49.50;;;;;;5099627;28;20410;-86
2021/07/11 07:28:29;;;;;;;13.53;12.07;;;25.30;51.00;;;;;;5095237;28;20202;-86
2021/07/11 07:30:54;;;;;;;13.97;12.60;;;25.10;52.30;;;;;;5093568;28;20922;-86
2021/07/11 07:33:22;;;;;;;14.80;12.20;;;25.00;53.20;;;;;;5095433;28;20182;-86
2021/07/11 07:35:47;;;;;;;11.43;9.23;;;25.10;53.60;;;;;;5093128;28;20187;-86
2021/07/11 07:38:13;;;;;;;12.53;10.13;;;25.20;52.80;;;;;;5093616;28;20422;-86
2021/07/11 07:40:39;;;;;;;15.53;12.30;;;25.10;51.80;;;;;;5095116;28;20904;-86
2021/07/11 07:43:06;;;;;;;16.00;11.17;;;24.80;52.60;;;;;;5094376;28;20183;-86
2021/07/11 07:45:32;;;;;;;10.90;9.80;;;24.30;53.30;;;;;;5094198;28;20421;-86
2021/07/11 07:47:58;;;;;;;14.47;10.70;;;24.10;54.40;;;;;;5094055;28;20417;-86
2021/07/11 07:50:23;;;;;;;14.43;11.53;;;23.80;55.20;;;;;;5093195;28;20210;-87
2021/07/11 07:52:49;;;;;;;13.23;10.90;;;23.30;56.50;;;;;;5105985;28;20199;-86
2021/07/11 07:55:15;;;;;;;13.00;9.87;;;23.30;57.60;;;;;;5095890;28;20489;-86
2021/07/11 07:57:41;;;;;;;11.40;9.00;;;23.40;58.50;;;;;;5096297;28;20603;-86
2021/07/11 08:00:11;;;;;;;11.00;8.87;;;23.40;58.40;;;;;;5097816;28;20417;-86
2021/07/11 08:02:37;;;;;;;12.40;8.53;;;23.30;59.10;;;;;;5094613;28;20198;-86
2021/07/11 08:05:06;;;;;;;13.13;9.33;;;23.50;58.70;;;;;;5094005;28;20428;-87
2021/07/11 08:07:32;;;;;;;15.30;8.83;;;23.60;56.70;;;;;;5093808;28;20425;-87
2021/07/11 08:09:58;;;;;;;12.10;8.60;;;23.40;56.30;;;;;;5093441;28;20773;-86
2021/07/11 08:12:24;;;;;;;8.90;7.53;;;23.20;56.60;;;;;;5093322;28;20720;-87
2021/07/11 08:14:49;;;;;;;12.77;7.87;;;23.00;58.50;;;;;;5093266;28;20281;-87
2021/07/11 08:17:15;;;;;;;6.33;5.80;;;22.80;60.20;;;;;;5093045;28;20462;-87
2021/07/11 08:19:41;;;;;;;8.93;6.30;;;22.70;59.80;;;;;;5094438;28;20271;-87
2021/07/11 08:22:07;;;;;;;8.20;6.33;;;22.50;58.10;;;;;;5094251;28;20236;-87
2021/07/11 08:24:33;;;;;;;11.17;6.20;;;22.50;58.50;;;;;;5093747;28;20417;-87
2021/07/11 08:26:59;;;;;;;12.27;7.07;;;22.60;58.70;;;;;;5093728;28;20183;-87
2021/07/11 08:29:24;;;;;;;7.83;7.03;;;22.40;58.50;;;;;;5094992;28;20421;-86
2021/07/11 08:31:50;;;;;;;9.90;7.53;;;22.40;59.40;;;;;;5096117;28;20194;-86
2021/07/11 08:34:16;;;;;;;9.33;7.37;;;22.40;59.70;;;;;;5097554;28;20176;-87
2021/07/11 08:36:41;;;;;;;7.50;6.80;;;22.40;60.20;;;;;;5102141;28;20221;-86
2021/07/11 08:39:07;;;;;;;6.73;6.07;;;22.40;59.70;;;;;;5114069;28;20185;-86
2021/07/11 08:41:35;;;;;;;7.70;5.80;;;22.70;59.60;;;;;;5112284;28;20192;-86
2021/07/11 08:44:02;;;;;;;5.50;5.00;;;22.70;58.10;;;;;;5115187;28;20197;-86
2021/07/11 08:46:28;;;;;;;6.77;5.77;;;22.80;57.60;;;;;;5116541;28;20418;-87
2021/07/11 08:48:54;;;;;;;4.60;4.20;;;23.10;57.70;;;;;;5118930;28;20398;-87
2021/07/11 08:51:20;;;;;;;6.10;4.57;;;23.40;56.40;;;;;;5116299;28;20797;-86
2021/07/11 08:53:47;;;;;;;6.40;3.77;;;23.50;56.70;;;;;;5117799;28;20255;-86
2021/07/11 08:56:17;;;;;;;7.60;4.60;;;23.20;56.20;;;;;;5117078;28;20507;-87
2021/07/11 08:58:52;;;;;;;4.60;2.90;;;23.00;56.70;;;;;;5117232;28;20470;-86
2021/07/11 09:01:23;;;;;;;2.80;2.60;;;22.70;56.20;;;;;;5115821;28;20437;-87
2021/07/11 09:04:01;;;;;;;3.17;2.87;;;22.50;56.30;;;;;;5111712;28;20452;-87
2021/07/11 09:06:27;;;;;;;3.07;2.77;;;22.30;57.20;;;;;;5098685;28;20428;-85
2021/07/11 09:08:58;;;;;;;3.33;3.03;;;22.10;57.20;;;;;;5095951;28;20500;-85
2021/07/11 09:11:24;;;;;;;3.57;3.27;;;22.10;58.30;;;;;;5095387;28;20206;-85
2021/07/11 09:13:51;;;;;;;9.50;3.57;;;22.20;56.70;;;;;;5096286;28;20426;-86
2021/07/11 09:16:17;;;;;;;4.37;3.73;;;22.20;57.70;;;;;;5096277;28;20465;-85
2021/07/11 09:18:43;;;;;;;3.60;3.27;;;22.20;58.50;;;;;;5096116;28;20474;-86
2021/07/11 09:21:13;;;;;;;7.00;3.20;;;22.20;59.20;;;;;;5097004;28;20705;-85
2021/07/11 09:23:39;;;;;;;3.90;3.60;;;22.50;58.70;;;;;;5096578;28;20405;-85
2021/07/11 09:26:09;;;;;;;3.80;3.50;;;22.50;57.50;;;;;;5097229;28;20406;-85
2021/07/11 09:28:43;;;;;;;4.27;3.40;;;22.70;57.50;;;;;;5096819;28;20405;-86
2021/07/11 09:31:10;;;;;;;6.90;3.63;;;22.60;58.60;;;;;;5095240;28;20852;-86
2021/07/11 09:33:38;;;;;;;6.70;3.57;;;22.60;57.70;;;;;;5095843;28;20422;-86
2021/07/11 09:36:09;;;;;;;4.60;4.10;;;22.60;57.60;;;;;;5094955;28;20465;-85
2021/07/11 09:38:35;;;;;;;5.07;4.60;;;22.40;57.10;;;;;;5095414;28;20421;-86
2021/07/11 09:41:13;;;;;;;5.90;3.70;;;22.40;58.20;;;;;;5095990;28;20421;-86
2021/07/11 09:43:40;;;;;;;4.97;3.83;;;22.40;58.00;;;;;;5111106;28;20481;-85
2021/07/11 09:46:15;;;;;;;4.60;4.10;;;22.70;58.20;;;;;;5096624;28;20932;-86
2021/07/11 09:48:41;;;;;;;5.67;4.27;;;22.90;57.90;;;;;;5095580;28;20409;-86
2021/07/11 09:51:33;;;;;;;5.00;3.90;;;23.00;56.60;;;;;;5096264;28;20478;-86
2021/07/11 09:54:13;;;;;;;3.17;2.77;;;23.10;56.20;;;;;;5095116;28;20410;-86
2021/07/11 09:56:44;;;;;;;4.70;3.10;;;23.40;57.20;;;;;;5096961;28;20441;-86
2021/07/11 09:59:12;;;;;;;4.57;3.67;;;23.80;56.90;;;;;;5095632;28;20457;-86
2021/07/11 10:01:40;;;;;;;3.77;3.37;;;24.20;55.50;;;;;;5095646;28;20437;-86
2021/07/11 10:04:07;;;;;;;3.83;3.43;;;24.50;54.50;;;;;;5095630;28;20420;-86
2021/07/11 10:06:34;;;;;;;4.10;3.20;;;24.80;53.50;;;;;;5096531;28;20426;-86
2021/07/11 10:09:01;;;;;;;3.60;3.00;;;24.60;53.00;;;;;;5095087;28;20410;-86
2021/07/11 10:11:27;;;;;;;3.13;2.87;;;24.80;52.90;;;;;;5094648;28;20491;-86
2021/07/11 10:13:53;;;;;;;2.87;2.50;;;25.00;51.40;;;;;;5094931;28;20449;-86
2021/07/11 10:16:22;;;;;;;2.70;2.50;;;25.20;51.40;;;;;;5094502;28;20493;-86
2021/07/11 10:18:50;;;;;;;2.80;2.60;;;25.50;49.60;;;;;;5096508;28;20160;-86
2021/07/11 10:21:19;;;;;;;2.93;2.73;;;25.70;48.00;;;;;;5094005;28;20533;-86
2021/07/11 10:23:45;;;;;;;3.20;2.23;;;25.80;46.60;;;;;;5096350;28;20421;-86
2021/07/11 10:26:14;;;;;;;6.17;3.00;;;25.80;47.50;;;;;;5096403;28;20437;-86
2021/07/11 10:28:49;;;;;;;2.73;2.37;;;25.80;46.00;;;;;;5094865;28;20463;-86
2021/07/11 10:31:26;;;;;;;3.50;2.73;;;25.60;47.30;;;;;;5093858;28;20431;-87
2021/07/11 10:33:55;;;;;;;3.23;2.33;;;25.10;48.30;;;;;;5094794;28;20491;-87
2021/07/11 10:36:33;;;;;;;2.67;2.40;;;25.00;48.40;;;;;;5094586;28;20536;-87
2021/07/11 10:38:59;;;;;;;2.30;2.07;;;24.80;49.50;;;;;;5104956;28;20458;-86
2021/07/11 10:41:27;;;;;;;3.30;2.50;;;24.80;50.40;;;;;;5095187;28;20441;-87
2021/07/11 10:44:04;;;;;;;2.83;2.63;;;24.90;50.80;;;;;;5095611;28;20417;-87
2021/07/11 10:46:34;;;;;;;3.43;3.20;;;24.80;48.30;;;;;;5095123;28;20414;-86
2021/07/11 10:49:18;;;;;;;2.90;2.70;;;24.60;47.70;;;;;;5095336;28;20928;-86
2021/07/11 10:51:48;;;;;;;2.93;2.73;;;24.90;48.50;;;;;;5095158;28;20493;-87
2021/07/11 10:54:27;;;;;;;2.57;2.37;;;25.40;47.60;;;;;;5094899;28;20521;-86
2021/07/11 10:57:07;;;;;;;4.10;2.07;;;25.20;46.00;;;;;;5096403;28;20529;-86
2021/07/11 10:59:34;;;;;;;1.90;1.80;;;25.10;46.00;;;;;;5094030;28;20402;-87
2021/07/11 11:02:03;;;;;;;2.50;2.30;;;25.10;47.90;;;;;;5093293;28;20426;-87
2021/07/11 11:04:29;;;;;;;2.57;1.80;;;25.10;49.00;;;;;;5094467;28;20909;-87
2021/07/11 11:06:55;;;;;;;2.77;2.30;;;25.30;48.00;;;;;;5094806;28;20413;-87
2021/07/11 11:09:44;;;;;;;2.50;2.13;;;25.10;48.50;;;;;;5089041;28;20187;-86
2021/07/11 11:12:24;;;;;;;2.43;1.70;;;25.10;48.60;;;;;;5090324;28;20503;-87
2021/07/11 11:14:59;;;;;;;1.90;1.80;;;24.90;48.80;;;;;;5095714;28;20425;-87
2021/07/11 11:17:36;;;;;;;2.50;2.30;;;25.20;48.70;;;;;;5097044;28;20461;-87
2021/07/11 11:20:09;;;;;;;2.17;1.60;;;24.80;47.00;;;;;;5098126;28;20429;-87
2021/07/11 11:22:35;;;;;;;1.60;1.50;;;25.00;47.30;;;;;;5095329;28;20444;-87
2021/07/11 11:25:05;;;;;;;2.33;1.93;;;25.00;48.40;;;;;;5094346;28;20414;-87
2021/07/11 11:27:40;;;;;;;2.53;2.33;;;25.20;47.80;;;;;;5094961;28;20447;-86
2021/07/11 11:30:16;;;;;;;4.70;2.30;;;25.40;47.20;;;;;;5094637;28;20430;-87
2021/07/11 11:32:42;;;;;;;2.17;1.97;;;24.90;47.10;;;;;;5095891;28;20433;-87
2021/07/11 11:35:09;;;;;;;4.43;1.90;;;24.90;48.30;;;;;;5101955;28;20413;-87
2021/07/11 11:37:46;;;;;;;2.60;2.20;;;25.20;48.20;;;;;;5096174;28;20608;-87
2021/07/11 11:40:13;;;;;;;2.50;2.20;;;25.40;48.80;;;;;;5094064;28;20418;-86
2021/07/11 11:42:47;;;;;;;1.80;1.70;;;25.50;48.70;;;;;;5093330;28;20469;-87
2021/07/11 11:45:14;;;;;;;2.43;2.23;;;25.60;48.60;;;;;;5093866;28;20912;-87
2021/07/11 11:47:39;;;;;;;2.67;2.10;;;25.60;47.80;;;;;;5093745;28;20774;-87
2021/07/11 11:50:19;;;;;;;1.87;1.77;;;25.80;47.60;;;;;;5093976;28;20426;-86
2021/07/11 11:52:45;;;;;;;2.50;2.30;;;26.00;48.10;;;;;;5095209;28;20203;-87
2021/07/11 11:55:14;;;;;;;2.23;2.03;;;26.30;47.00;;;;;;5094178;28;20426;-86
2021/07/11 11:57:41;;;;;;;4.63;2.30;;;26.30;46.50;;;;;;5093296;28;21070;-87
2021/07/11 12:00:14;;;;;;;2.23;1.73;;;26.10;46.10;;;;;;5092893;28;20418;-88
2021/07/11 12:02:40;;;;;;;3.40;2.10;;;26.20;46.30;;;;;;5094241;28;20434;-86
2021/07/11 12:05:14;;;;;;;2.10;1.90;;;26.30;45.80;;;;;;5092981;28;20426;-87
2021/07/11 12:07:41;;;;;;;1.87;1.77;;;26.30;45.40;;;;;;5095372;28;20234;-87
2021/07/11 12:10:08;;;;;;;1.90;1.77;;;26.10;43.30;;;;;;5096249;28;20423;-87
2021/07/11 12:12:35;;;;;;;1.50;1.40;;;25.80;42.50;;;;;;5098711;28;20883;-87
2021/07/11 12:15:03;;;;;;;3.23;1.60;;;25.90;42.90;;;;;;5098141;28;20484;-87
2021/07/11 12:17:33;;;;;;;1.60;1.50;;;25.60;44.20;;;;;;5097178;28;20870;-87
2021/07/11 12:20:00;;;;;;;1.67;1.57;;;25.00;45.20;;;;;;5098324;28;20421;-88
2021/07/11 12:22:29;;;;;;;2.33;1.73;;;25.00;47.00;;;;;;5096565;28;20438;-88
2021/07/11 12:25:24;;;;;;;1.93;1.40;;;25.50;47.10;;;;;;5097429;28;20429;-87
2021/07/11 12:28:00;;;;;;;4.40;1.57;;;25.90;45.60;;;;;;5097297;28;20408;-87
2021/07/11 12:30:44;;;;;;;1.50;1.40;;;26.00;44.70;;;;;;5106968;28;20414;-88
2021/07/11 12:33:11;;;;;;;1.77;1.63;;;26.30;45.00;;;;;;5096642;28;20418;-87
2021/07/11 12:35:45;;;;;;;1.80;1.70;;;26.50;44.30;;;;;;5097161;28;20960;-85
2021/07/11 12:38:12;;;;;;;2.83;1.70;;;26.70;44.10;;;;;;5096946;28;20460;-85
2021/07/11 12:40:39;;;;;;;2.07;1.87;;;26.60;43.00;;;;;;5097855;28;20407;-85